Time;durP1;ratioP1;P1;durP2;ratioP2;P2;SDS_P1;SDS_P2;PMS_P1;PMS_P2;Temp;Humidity;BMP_temperature;BMP_pressure;BME280_temperature;BME280_humidity;BME280_pressure;Samples;Min_cycle;Max_cycle;Signal;HPM_P1;HPM_P2
2021/10/01 00:01:55;;;;;;;1999.90;999.90;;;;;;;7.16;46.69;101943.44;5021429;27;100332;-72
2021/10/01 00:04:23;;;;;;;1999.90;999.90;;;;;;;7.11;46.57;101933.44;5023293;28;99811;-71
2021/10/01 00:06:51;;;;;;;1999.90;999.90;;;;;;;7.10;46.98;101934.28;5025904;28;96983;-73
2021/10/01 00:09:18;;;;;;;1999.90;999.90;;;;;;;7.08;46.76;101938.59;5026469;27;97280;-73
2021/10/01 00:11:51;;;;;;;1999.90;999.90;;;;;;;7.08;46.85;101935.94;5005313;28;99364;-72
2021/10/01 00:14:20;;;;;;;1999.90;999.90;;;;;;;7.08;46.97;101935.94;5022771;27;98809;-73
2021/10/01 00:16:48;;;;;;;1999.90;999.90;;;;;;;7.05;47.12;101936.69;5023310;27;97719;-72
2021/10/01 00:19:19;;;;;;;1999.90;999.90;;;;;;;7.05;46.70;101933.13;5023114;27;97632;-72
2021/10/01 00:21:46;;;;;;;1999.90;999.90;;;;;;;7.04;47.16;101929.56;5020914;28;98785;-73
2021/10/01 00:24:15;;;;;;;1999.90;999.90;;;;;;;7.04;47.01;101928.66;5022664;28;99619;-71
2021/10/01 00:26:43;;;;;;;1999.90;999.90;;;;;;;7.03;46.74;101929.50;5026817;27;96932;-71
2021/10/01 00:29:11;;;;;;;1999.90;999.90;;;;;;;7.02;46.82;101925.94;5023763;27;98090;-72
2021/10/01 00:31:39;;;;;;;1999.90;999.90;;;;;;;6.99;47.14;101917.84;5003683;28;99586;-72
2021/10/01 00:34:08;;;;;;;1999.90;999.90;;;;;;;6.98;47.11;101917.75;5023269;28;101169;-71
2021/10/01 00:36:37;;;;;;;1999.90;999.90;;;;;;;6.97;47.28;101915.94;5024562;27;96872;-72
2021/10/01 00:39:06;;;;;;;1999.90;999.90;;;;;;;6.94;47.18;101910.47;5031108;27;96911;-73
2021/10/01 00:41:35;;;;;;;1999.90;999.90;;;;;;;6.93;47.54;101909.56;5023929;27;98094;-71
2021/10/01 00:44:02;;;;;;;1999.90;999.90;;;;;;;6.92;47.20;101912.13;5024339;27;97598;-71
2021/10/01 00:46:31;;;;;;;1999.90;999.90;;;;;;;6.91;47.09;101912.94;5024036;27;96907;-73
2021/10/01 00:48:58;;;;;;;1999.90;999.90;;;;;;;6.90;47.48;101911.13;5022026;28;97081;-72
2021/10/01 00:51:27;;;;;;;1999.90;999.90;;;;;;;6.89;47.32;101906.69;5024235;27;100590;-72
2021/10/01 00:53:57;;;;;;;1999.90;999.90;;;;;;;6.88;47.34;101904.84;5004774;28;101932;-72
2021/10/01 00:56:25;;;;;;;1999.90;999.90;;;;;;;6.87;47.40;101908.34;5022428;27;96943;-72
2021/10/01 00:58:52;;;;;;;1999.90;999.90;;;;;;;6.85;47.71;101910.88;5023546;27;97264;-72
2021/10/01 01:01:20;;;;;;;1999.90;999.90;;;;;;;6.85;47.60;101904.69;5023141;28;97689;-72
2021/10/01 01:03:52;;;;;;;1999.90;999.90;;;;;;;6.82;47.75;101902.78;5005392;28;99119;-73
2021/10/01 01:06:29;;;;;;;1999.90;999.90;;;;;;;6.80;47.48;101899.16;5019932;28;96892;-71
2021/10/01 01:09:04;;;;;;;1999.90;999.90;;;;;;;6.78;47.75;101902.56;5005635;27;96914;-73
2021/10/01 01:11:39;;;;;;;1999.90;999.90;;;;;;;6.76;47.87;101902.44;5004877;27;99290;-72
2021/10/01 01:14:12;;;;;;;1999.90;999.90;;;;;;;6.74;47.67;101904.13;5003679;28;97814;-72
2021/10/01 01:16:44;;;;;;;1999.90;999.90;;;;;;;6.73;47.97;101904.00;5022678;27;96821;-72
2021/10/01 01:19:17;;;;;;;1999.90;999.90;;;;;;;6.71;47.61;101892.44;5023407;27;97159;-73
2021/10/01 01:21:55;;;;;;;1999.90;999.90;;;;;;;6.66;47.60;101897.50;5022221;28;98846;-71
2021/10/01 01:24:47;;;;;;;1999.90;999.90;;;;;;;6.65;47.89;101889.50;5003203;28;100626;-71
2021/10/01 01:27:29;;;;;;;1999.90;999.90;;;;;;;6.62;47.84;101899.88;5034734;27;97226;-71
2021/10/01 01:30:03;;;;;;;1999.90;999.90;;;;;;;6.60;47.74;101891.88;5006016;28;97337;-72
2021/10/01 01:32:34;;;;;;;1999.90;999.90;;;;;;;6.59;48.19;101894.44;5019297;28;99656;-73
2021/10/01 01:35:06;;;;;;;1999.90;999.90;;;;;;;6.58;48.01;101889.97;5021399;28;96833;-72
2021/10/01 01:37:39;;;;;;;1999.90;999.90;;;;;;;6.55;48.12;101887.16;5021666;27;97355;-72
2021/10/01 01:40:08;;;;;;;1999.90;999.90;;;;;;;6.53;47.94;101886.16;5011472;28;97014;-72
2021/10/01 01:42:37;;;;;;;1999.90;999.90;;;;;;;6.51;48.18;101882.50;5022576;27;99170;-72
2021/10/01 01:45:06;;;;;;;1999.90;999.90;;;;;;;6.49;48.01;101881.56;5003872;28;99353;-73
2021/10/01 01:47:36;;;;;;;1999.90;999.90;;;;;;;6.46;48.30;101878.72;5022114;27;96989;-72
2021/10/01 01:50:05;;;;;;;1999.90;999.90;;;;;;;6.45;48.20;101882.19;5002751;28;97707;-72
2021/10/01 01:52:34;;;;;;;1999.90;999.90;;;;;;;6.43;48.15;101881.19;5005541;28;101803;-71
2021/10/01 01:55:03;;;;;;;1999.90;999.90;;;;;;;6.41;48.53;101881.13;5006107;28;99349;-74
2021/10/01 01:57:32;;;;;;;1999.90;999.90;;;;;;;6.39;48.63;101879.19;5022944;27;97579;-73
2021/10/01 02:00:00;;;;;;;1999.90;999.90;;;;;;;6.37;48.57;101870.28;5003236;28;96902;-71
2021/10/01 02:02:50;;;;;;;1999.90;999.90;;;;;;;6.34;48.21;101875.41;5016030;27;102024;-72
2021/10/01 02:05:21;;;;;;;1999.90;999.90;;;;;;;6.35;48.56;101879.84;5004284;28;98397;-73
2021/10/01 02:07:50;;;;;;;1999.90;999.90;;;;;;;6.33;48.77;101873.56;5021821;28;97365;-72
2021/10/01 02:10:20;;;;;;;1999.90;999.90;;;;;;;6.33;48.51;101868.28;5004105;28;96904;-72
2021/10/01 02:12:52;;;;;;;1999.90;999.90;;;;;;;6.33;48.54;101868.28;5007072;27;99900;-72
2021/10/01 02:15:21;;;;;;;1999.90;999.90;;;;;;;6.31;48.82;101860.28;5020469;28;98612;-73
2021/10/01 02:17:51;;;;;;;1999.90;999.90;;;;;;;6.31;48.65;101860.28;5023147;27;96840;-74
2021/10/01 02:20:20;;;;;;;1999.90;999.90;;;;;;;6.32;48.85;101861.19;5018653;28;97946;-71
2021/10/01 02:22:48;;;;;;;1999.90;999.90;;;;;;;6.34;48.58;101849.88;5003479;28;100171;-73
2021/10/01 02:27:59;;;;;;;1999.90;999.90;;;;;;;6.35;48.70;101853.41;4999799;27;98145;-73
2021/10/01 02:30:29;;;;;;;1999.90;999.90;;;;;;;6.34;48.42;101851.63;5005008;27;97507;-72
2021/10/01 02:33:03;;;;;;;1999.90;999.90;;;;;;;6.30;48.94;101846.97;5002613;27;102289;-72
2021/10/01 02:35:31;;;;;;;1999.90;999.90;;;;;;;6.29;48.75;101834.59;5005094;28;99143;-74
2021/10/01 02:37:59;;;;;;;1999.90;999.90;;;;;;;6.28;48.97;101831.03;5004675;28;97549;-72
2021/10/01 02:40:27;;;;;;;1999.90;999.90;;;;;;;6.28;48.58;101830.13;5024675;28;97480;-71
2021/10/01 02:42:55;;;;;;;1999.90;999.90;;;;;;;6.26;49.01;101837.94;5017755;27;99960;-73
2021/10/01 02:45:23;;;;;;;1999.90;999.90;;;;;;;6.24;48.81;101837.84;5019953;28;97243;-74
2021/10/01 02:47:51;;;;;;;1999.90;999.90;;;;;;;6.24;48.84;101836.94;5021644;27;97187;-73
2021/10/01 02:50:22;;;;;;;1999.90;999.90;;;;;;;6.23;48.73;101824.56;5002465;28;97656;-73
2021/10/01 02:52:54;;;;;;;1999.90;999.90;;;;;;;6.22;48.89;101821.00;5018992;27;98922;-73
2021/10/01 02:55:50;;;;;;;1999.90;999.90;;;;;;;6.22;48.93;101818.34;5019104;28;100454;-73
2021/10/01 02:58:22;;;;;;;1999.90;999.90;;;;;;;6.20;49.27;101822.66;5005424;28;96836;-74
2021/10/01 03:00:50;;;;;;;1999.90;999.90;;;;;;;6.18;49.28;101821.66;5004399;28;97529;-72
2021/10/01 03:03:21;;;;;;;1999.90;999.90;;;;;;;6.18;49.17;101818.09;5003557;28;101442;-72
2021/10/01 03:05:52;;;;;;;1999.90;999.90;;;;;;;6.18;49.33;101813.72;5024745;28;100837;-72
2021/10/01 03:08:20;;;;;;;1999.90;999.90;;;;;;;6.18;49.37;101805.78;5025040;27;97415;-71
2021/10/01 03:10:50;;;;;;;1999.90;999.90;;;;;;;6.18;49.01;101811.06;5021646;28;97228;-74
2021/10/01 03:13:21;;;;;;;1999.90;999.90;;;;;;;6.19;49.01;101802.34;5034067;27;99576;-73
2021/10/01 03:15:50;;;;;;;1999.90;999.90;;;;;;;6.20;49.12;101793.56;5023986;27;99830;-74
2021/10/01 03:18:19;;;;;;;1999.90;999.90;;;;;;;6.20;49.19;101804.16;5026090;28;96863;-70
2021/10/01 03:20:47;;;;;;;1999.90;999.90;;;;;;;6.21;48.98;101810.34;5032774;27;97768;-72
2021/10/01 03:23:17;;;;;;;1999.90;999.90;;;;;;;6.21;49.34;101811.22;5005060;28;97855;-71
2021/10/01 03:25:45;;;;;;;1999.90;999.90;;;;;;;6.21;49.57;101808.59;5006797;28;100982;-73
2021/10/01 03:28:14;;;;;;;1999.90;999.90;;;;;;;6.23;49.59;101809.59;5007188;28;97085;-74
2021/10/01 03:30:44;;;;;;;1999.90;999.90;;;;;;;6.24;49.15;101800.84;5006387;28;97467;-71
2021/10/01 03:33:13;;;;;;;1999.90;999.90;;;;;;;6.27;49.50;101802.78;5024348;27;97595;-74
2021/10/01 03:35:42;;;;;;;1999.90;999.90;;;;;;;6.28;49.25;101798.41;5007543;27;100563;-74
2021/10/01 03:38:11;;;;;;;1999.90;999.90;;;;;;;6.28;49.33;101796.69;5022697;27;97369;-73
2021/10/01 03:40:43;;;;;;;1999.90;999.90;;;;;;;6.30;49.38;101799.41;5006273;28;97952;-73
2021/10/01 03:43:11;;;;;;;1999.90;999.90;;;;;;;6.29;49.37;101789.66;5023250;27;99237;-73
2021/10/01 03:45:39;;;;;;;1999.90;999.90;;;;;;;6.30;49.34;101795.03;5001633;28;99480;-73
2021/10/01 03:48:07;;;;;;;1999.90;999.90;;;;;;;6.30;49.41;101789.75;5006642;28;97227;-74
2021/10/01 03:50:50;;;;;;;1999.90;999.90;;;;;;;6.31;49.36;101782.69;5005636;28;97236;-72
2021/10/01 03:53:18;;;;;;;1999.90;999.90;;;;;;;6.30;49.21;101780.91;5005247;28;100503;-72
2021/10/01 03:55:47;;;;;;;1999.90;999.90;;;;;;;6.30;49.27;101780.91;5007023;28;98812;-72
2021/10/01 03:58:15;;;;;;;1999.90;999.90;;;;;;;6.30;49.31;101768.59;5007261;28;97547;-75
2021/10/01 04:00:44;;;;;;;1999.90;999.90;;;;;;;6.30;49.56;101772.97;5000860;27;97906;-73
2021/10/01 04:03:13;;;;;;;1999.90;999.90;;;;;;;6.29;49.72;101765.88;5011916;28;97621;-73
2021/10/01 04:05:46;;;;;;;1999.90;999.90;;;;;;;6.30;49.50;101767.69;4998104;27;99241;-75
2021/10/01 04:08:14;;;;;;;1999.90;999.90;;;;;;;6.30;49.29;101767.69;5001993;28;97375;-77
2021/10/01 04:10:45;;;;;;;1999.90;999.90;;;;;;;6.29;49.18;101764.13;5006276;28;97028;-77
2021/10/01 04:13:14;;;;;;;1999.90;999.90;;;;;;;6.29;49.36;101765.88;5021924;27;97816;-77
2021/10/01 04:15:46;;;;;;;1999.90;999.90;;;;;;;6.26;49.54;101761.28;5006595;28;97729;-77
2021/10/01 04:18:14;;;;;;;1999.90;999.90;;;;;;;6.24;49.45;101766.50;5004236;28;97031;-77
2021/10/01 04:20:44;;;;;;;1999.90;999.90;;;;;;;6.21;49.45;101763.66;5021444;27;97691;-77
2021/10/01 04:23:12;;;;;;;1999.90;999.90;;;;;;;6.21;49.36;101766.31;5021191;27;99366;-77
2021/10/01 04:25:55;;;;;;;1999.90;999.90;;;;;;;6.21;49.67;101765.41;5024302;27;99426;-76
2021/10/01 04:28:24;;;;;;;1999.90;999.90;;;;;;;6.20;49.28;101755.66;5006706;28;97373;-76
2021/10/01 04:30:58;;;;;;;1999.90;999.90;;;;;;;6.19;49.67;101759.13;5006695;28;97534;-76
2021/10/01 04:33:27;;;;;;;1999.90;999.90;;;;;;;6.18;49.55;101752.03;5021369;27;97450;-75
2021/10/01 04:35:57;;;;;;;1999.90;999.90;;;;;;;6.16;49.54;101749.31;5024099;27;99482;-76
2021/10/01 04:38:28;;;;;;;1999.90;999.90;;;;;;;6.14;49.25;101750.94;5004939;28;97342;-77
2021/10/01 04:40:57;;;;;;;1999.90;999.90;;;;;;;6.15;49.61;101746.56;5005482;28;97280;-77
2021/10/01 04:43:26;;;;;;;1999.90;999.90;;;;;;;6.13;49.52;101749.16;5002893;28;98715;-77
2021/10/01 04:46:15;;;;;;;1999.90;999.90;;;;;;;6.12;49.39;101736.75;4997320;28;97429;-77
2021/10/01 04:48:44;;;;;;;1999.90;999.90;;;;;;;6.12;49.66;101739.38;5001444;28;96975;-76
2021/10/01 04:51:20;;;;;;;1999.90;999.90;;;;;;;6.10;49.89;101735.75;5000486;28;98063;-75
2021/10/01 04:53:48;;;;;;;1999.90;999.90;;;;;;;6.10;49.49;101735.75;5021675;28;97939;-76
2021/10/01 04:56:19;;;;;;;1999.90;999.90;;;;;;;6.09;49.77;101740.94;5003591;27;99989;-77
2021/10/01 04:58:48;;;;;;;1999.90;999.90;;;;;;;6.10;49.74;101733.09;5022492;28;97160;-76
2021/10/01 05:01:39;;;;;;;1999.90;999.90;;;;;;;6.06;49.40;101733.78;5021057;27;96920;-76
2021/10/01 05:04:25;;;;;;;1999.90;999.90;;;;;;;6.04;49.46;101743.34;5016447;28;96883;-76
2021/10/01 05:07:12;;;;;;;1999.90;999.90;;;;;;;6.04;49.37;101739.81;4991109;27;101221;-76
2021/10/01 05:09:59;;;;;;;1999.90;999.90;;;;;;;6.03;49.74;101741.53;5021547;27;98457;-77
2021/10/01 05:12:45;;;;;;;1999.90;999.90;;;;;;;6.02;49.74;101742.38;5019537;28;97957;-76
2021/10/01 05:15:34;;;;;;;1999.90;999.90;;;;;;;6.00;49.73;101738.72;5008541;28;99771;-77
2021/10/01 05:18:31;;;;;;;1999.90;999.90;;;;;;;5.99;49.56;101741.28;4971544;28;100815;-77
2021/10/01 05:21:17;;;;;;;1999.90;999.90;;;;;;;5.99;49.60;101749.22;5021863;28;96975;-76
2021/10/01 05:23:52;;;;;;;1999.90;999.90;;;;;;;5.99;49.54;101746.56;5018522;27;97390;-78
2021/10/01 05:26:20;;;;;;;1999.90;999.90;;;;;;;5.99;49.62;101755.41;4999423;27;100513;-77
2021/10/01 05:28:48;;;;;;;1999.90;999.90;;;;;;;5.99;49.43;101754.50;5017733;27;100368;-77
2021/10/01 05:31:17;;;;;;;1999.90;999.90;;;;;;;5.98;49.52;101747.38;5003132;27;97528;-77
2021/10/01 05:33:45;;;;;;;1999.90;999.90;;;;;;;5.99;49.49;101751.84;5019352;28;97100;-76
2021/10/01 05:36:13;;;;;;;1999.90;999.90;;;;;;;6.01;49.35;101753.75;5018608;27;99600;-78
2021/10/01 05:38:40;;;;;;;1999.90;999.90;;;;;;;6.01;49.69;101747.56;5018448;27;97549;-77
2021/10/01 05:41:08;;;;;;;1999.90;999.90;;;;;;;6.02;49.44;101759.94;5005961;28;97776;-77
2021/10/01 05:43:36;;;;;;;1999.90;999.90;;;;;;;6.02;49.31;101754.66;5022720;28;98096;-77
2021/10/01 05:46:05;;;;;;;1999.90;999.90;;;;;;;6.01;49.64;101752.84;5021634;27;97825;-77
2021/10/01 05:49:08;;;;;;;1999.90;999.90;;;;;;;6.00;49.58;101751.94;4989189;28;98098;-78
2021/10/01 05:52:02;;;;;;;1999.90;999.90;;;;;;;6.00;49.70;101751.94;5021457;27;97202;-77
2021/10/01 05:54:49;;;;;;;1999.90;999.90;;;;;;;6.02;49.36;101752.00;5022533;27;97610;-77
2021/10/01 05:57:45;;;;;;;1999.90;999.90;;;;;;;6.01;49.46;101747.56;5023272;27;100051;-77
2021/10/01 06:00:36;;;;;;;1999.90;999.90;;;;;;;6.03;49.64;101738.88;5004866;28;100764;-77
2021/10/01 06:03:04;;;;;;;1999.90;999.90;;;;;;;6.06;49.72;101747.00;5021492;27;97182;-77
2021/10/01 06:05:34;;;;;;;1999.90;999.90;;;;;;;6.05;49.42;101742.53;5007476;27;96874;-77
2021/10/01 06:08:01;;;;;;;1999.90;999.90;;;;;;;6.06;49.28;101740.78;5022907;27;97642;-77
2021/10/01 06:10:29;;;;;;;1999.90;999.90;;;;;;;6.08;49.65;101749.72;5023652;27;97733;-76
2021/10/01 06:12:57;;;;;;;1999.90;999.90;;;;;;;6.09;49.31;101746.22;5024585;28;97865;-77
2021/10/01 06:15:24;;;;;;;1999.90;999.90;;;;;;;6.12;49.25;101749.94;5013042;28;96867;-78
2021/10/01 06:17:52;;;;;;;1999.90;999.90;;;;;;;6.14;49.47;101743.03;5024545;27;97916;-77
2021/10/01 06:20:22;;;;;;;1999.90;999.90;;;;;;;6.18;49.58;101742.38;5023951;27;98070;-76
2021/10/01 06:22:51;;;;;;;1999.90;999.90;;;;;;;6.19;49.51;101749.50;5024293;28;97069;-77
2021/10/01 06:25:19;;;;;;;1999.90;999.90;;;;;;;6.22;49.26;101740.78;5012794;28;96886;-76
2021/10/01 06:27:47;;;;;;;1999.90;999.90;;;;;;;6.23;49.33;101740.88;5022431;28;99634;-77
2021/10/01 06:30:15;;;;;;;1999.90;999.90;;;;;;;6.28;49.33;101737.59;5023430;27;97997;-77
2021/10/01 06:32:42;;;;;;;1999.90;999.90;;;;;;;6.31;49.06;101732.47;5024966;28;97101;-77
2021/10/01 06:35:11;;;;;;;1999.90;999.90;;;;;;;6.33;49.46;101729.09;5021384;28;96680;-78
2021/10/01 06:37:39;;;;;;;1999.90;999.90;;;;;;;6.37;49.31;101724.88;5024919;27;101004;-77
2021/10/01 06:40:09;;;;;;;1999.90;999.90;;;;;;;6.41;49.46;101724.22;5027081;27;99498;-76
2021/10/01 06:42:37;;;;;;;1999.90;999.90;;;;;;;6.47;49.28;101725.44;5025443;27;96991;-77
2021/10/01 06:45:23;;;;;;;1999.90;999.90;;;;;;;6.52;48.76;101723.06;5025337;27;96776;-77
2021/10/01 06:48:06;;;;;;;1999.90;999.90;;;;;;;6.63;48.45;101727.16;5028330;27;97871;-77
2021/10/01 07:21:47;;;;;;;1999.90;999.90;;;;;;;7.22;48.31;101709.91;5025882;27;101102;-76
2021/10/01 07:35:38;;;;;;;1999.90;999.90;;;;;;;7.49;47.84;101700.69;5024916;27;100341;-76
2021/10/01 08:19:31;;;;;;;1999.90;999.90;;;;;;;8.36;46.52;101687.09;5025795;27;97589;-77
2021/10/01 08:21:59;;;;;;;1999.90;999.90;;;;;;;8.41;46.44;101683.81;5027432;27;97411;-76
2021/10/01 08:24:29;;;;;;;1999.90;999.90;;;;;;;8.47;46.41;101677.88;5027504;27;97316;-77
2021/10/01 08:26:57;;;;;;;1999.90;999.90;;;;;;;8.51;46.40;101678.13;5024450;27;102065;-77
2021/10/01 08:29:25;;;;;;;1999.90;999.90;;;;;;;8.57;46.22;101675.72;5025616;27;97593;-77
2021/10/01 08:31:59;;;;;;;1999.90;999.90;;;;;;;8.62;46.32;101676.84;5028521;27;96866;-77
2021/10/01 08:34:27;;;;;;;1999.90;999.90;;;;;;;8.70;46.30;101685.09;5024326;28;97419;-77
2021/10/01 08:36:57;;;;;;;1999.90;999.90;;;;;;;8.75;46.20;101675.63;5024578;28;99009;-77
2021/10/01 08:39:25;;;;;;;1999.90;999.90;;;;;;;8.81;46.21;101682.06;5026468;27;99042;-77
2021/10/01 08:41:54;;;;;;;1999.90;999.90;;;;;;;8.86;46.03;101676.97;5009340;28;97698;-77
2021/10/01 08:44:26;;;;;;;1999.90;999.90;;;;;;;8.92;46.07;101678.13;5023710;27;96836;-77
2021/10/01 08:46:54;;;;;;;1999.90;999.90;;;;;;;8.99;46.02;101666.91;5023846;28;99302;-78
2021/10/01 08:49:24;;;;;;;1999.90;999.90;;;;;;;9.04;45.95;101665.34;5023957;28;97734;-76
2021/10/01 08:51:52;;;;;;;1999.90;999.90;;;;;;;9.11;45.85;101669.19;5022195;27;97226;-78
2021/10/01 08:54:21;;;;;;;1999.90;999.90;;;;;;;9.14;45.82;101656.94;5023065;28;97798;-78
2021/10/01 08:56:49;;;;;;;1999.90;999.90;;;;;;;9.20;45.66;101661.59;5023958;27;98029;-77
2021/10/01 08:59:17;;;;;;;1999.90;999.90;;;;;;;9.24;45.61;101658.22;5025228;27;98104;-77
2021/10/01 09:01:45;;;;;;;1999.90;999.90;;;;;;;9.29;45.59;101651.34;5020523;27;97650;-77
2021/10/01 09:04:13;;;;;;;1999.90;999.90;;;;;;;9.33;45.66;101658.59;5022789;28;98212;-76
2021/10/01 09:06:42;;;;;;;1999.90;999.90;;;;;;;9.40;45.56;101646.44;5021860;27;99940;-78
2021/10/01 09:09:10;;;;;;;1999.90;999.90;;;;;;;9.44;45.54;101646.63;5005642;28;100850;-78
2021/10/01 09:11:45;;;;;;;1999.90;999.90;;;;;;;9.50;45.36;101640.69;5022561;27;97784;-76
2021/10/01 09:14:15;;;;;;;1999.90;999.90;;;;;;;9.56;45.35;101647.13;5021524;27;96945;-76
2021/10/01 09:16:43;;;;;;;1999.90;999.90;;;;;;;9.61;45.25;101642.91;5022403;27;99307;-76
2021/10/01 09:19:12;;;;;;;1999.90;999.90;;;;;;;9.67;45.28;101640.50;5023442;27;100710;-79
2021/10/01 09:21:42;;;;;;;1999.90;999.90;;;;;;;9.74;45.14;101637.22;5020975;27;97173;-76
2021/10/01 09:24:13;;;;;;;1999.90;999.90;;;;;;;9.82;44.88;101638.41;5022624;27;97564;-76
2021/10/01 09:26:48;;;;;;;1999.90;999.90;;;;;;;9.87;44.75;101634.19;5021847;27;100667;-76
2021/10/01 09:29:25;;;;;;;1999.90;999.90;;;;;;;9.94;44.66;101629.97;5022709;27;97463;-76
2021/10/01 09:31:54;;;;;;;1999.90;999.90;;;;;;;10.00;44.75;101630.22;5022570;27;97208;-78
2021/10/01 09:34:34;;;;;;;1999.90;999.90;;;;;;;10.06;44.67;101627.78;5022766;27;96784;-78
2021/10/01 09:37:03;;;;;;;1999.90;999.90;;;;;;;10.20;44.45;101618.53;5023306;27;97871;-75
2021/10/01 09:39:34;;;;;;;1999.90;999.90;;;;;;;10.32;44.39;101628.72;5021489;28;99321;-75
2021/10/01 09:42:15;;;;;;;1999.90;999.90;;;;;;;10.23;44.23;101624.88;5021844;28;97294;-76
2021/10/01 09:44:48;;;;;;;1999.90;999.90;;;;;;;10.27;44.42;101614.34;5031541;27;97119;-77
2021/10/01 09:47:16;;;;;;;1999.90;999.90;;;;;;;10.38;44.40;101615.63;5021692;27;99535;-77
2021/10/01 09:49:44;;;;;;;1999.90;999.90;;;;;;;10.33;44.35;101614.56;5021554;27;97787;-77
2021/10/01 09:52:14;;;;;;;1999.90;999.90;;;;;;;10.37;44.36;101611.16;5019805;27;97095;-76
2021/10/01 09:54:42;;;;;;;1999.90;999.90;;;;;;;10.43;44.25;101606.97;5022090;27;97265;-76
2021/10/01 09:57:13;;;;;;;1999.90;999.90;;;;;;;10.48;44.29;101604.50;5019560;27;100566;-76
2021/10/01 09:59:41;;;;;;;1999.90;999.90;;;;;;;10.53;44.24;101600.22;5023455;27;97981;-76
2021/10/01 10:02:11;;;;;;;1999.90;999.90;;;;;;;10.57;44.37;101595.06;5022990;27;97978;-76
2021/10/01 10:04:42;;;;;;;1999.90;999.90;;;;;;;10.63;44.15;101595.25;5027910;27;97377;-76
2021/10/01 10:07:15;;;;;;;1999.90;999.90;;;;;;;10.68;43.80;101585.69;5021557;27;97248;-76
2021/10/01 10:09:45;;;;;;;1999.90;999.90;;;;;;;10.73;43.83;101591.16;5022669;28;97311;-76
2021/10/01 10:12:17;;;;;;;1999.90;999.90;;;;;;;10.77;43.71;101594.00;5020336;28;96772;-76
2021/10/01 10:14:50;;;;;;;1999.90;999.90;;;;;;;10.81;43.93;101595.00;5021765;27;97181;-74
2021/10/01 10:17:22;;;;;;;1999.90;999.90;;;;;;;10.83;43.90;101587.97;5021160;27;97903;-76
2021/10/01 10:19:51;;;;;;;1999.90;999.90;;;;;;;10.86;43.86;101586.31;5020779;28;98622;-77
2021/10/01 10:22:20;;;;;;;1999.90;999.90;;;;;;;10.90;43.81;101584.63;5020772;27;97373;-77
2021/10/01 10:24:48;;;;;;;1999.90;999.90;;;;;;;10.94;43.78;101578.56;5022166;28;96969;-76
2021/10/01 10:27:17;;;;;;;1999.90;999.90;;;;;;;10.98;43.65;101578.69;5003053;28;99864;-77
2021/10/01 10:29:46;;;;;;;1999.90;999.90;;;;;;;11.04;43.94;101567.34;5020725;28;98170;-77
2021/10/01 10:32:18;;;;;;;1999.90;999.90;;;;;;;11.11;43.51;101564.00;5019848;27;97208;-77
2021/10/01 10:34:51;;;;;;;1999.90;999.90;;;;;;;11.16;43.43;101565.03;5021413;27;98165;-78
2021/10/01 10:37:19;;;;;;;1999.90;999.90;;;;;;;11.21;43.60;101566.13;5019357;28;98074;-77
2021/10/01 10:39:52;;;;;;;1999.90;999.90;;;;;;;11.27;43.36;101560.06;5003474;28;99396;-78
2021/10/01 10:42:40;;;;;;;1999.90;999.90;;;;;;;11.25;43.30;101568.00;5021886;27;99199;-78
2021/10/01 10:45:18;;;;;;;1999.90;999.90;;;;;;;11.29;43.69;101556.56;5021350;28;97291;-77
2021/10/01 10:48:08;;;;;;;1999.90;999.90;;;;;;;11.34;43.14;101557.69;5020630;28;100638;-77
2021/10/01 10:50:47;;;;;;;1999.90;999.90;;;;;;;11.41;43.50;101550.75;5020393;28;99557;-77
2021/10/01 10:53:28;;;;;;;1999.90;999.90;;;;;;;11.44;43.34;101549.09;5004477;28;97475;-77
2021/10/01 10:56:18;;;;;;;1999.90;999.90;;;;;;;11.50;43.29;101551.03;5023135;27;97529;-78
2021/10/01 10:58:53;;;;;;;1999.90;999.90;;;;;;;11.54;43.22;101534.28;5020665;27;101061;-77
2021/10/01 11:01:43;;;;;;;1999.90;999.90;;;;;;;11.60;43.08;101537.09;5020623;27;99859;-77
2021/10/01 11:04:27;;;;;;;1999.90;999.90;;;;;;;11.64;42.96;101536.31;5020501;27;97470;-78
2021/10/01 11:06:55;;;;;;;1999.90;999.90;;;;;;;11.70;43.31;101532.09;5023358;27;96794;-76
2021/10/01 11:09:31;;;;;;;1999.90;999.90;;;;;;;11.75;43.10;101534.88;5018935;27;97798;-76
2021/10/01 11:12:04;;;;;;;1999.90;999.90;;;;;;;11.83;43.02;101523.59;5022798;27;98857;-76
2021/10/01 11:14:33;;;;;;;1999.90;999.90;;;;;;;11.89;43.20;101520.19;5022671;27;97245;-77
2021/10/01 11:17:20;;;;;;;1999.90;999.90;;;;;;;11.97;42.32;101519.53;5020747;27;96982;-77
2021/10/01 11:19:53;;;;;;;1999.90;999.90;;;;;;;12.04;42.93;101509.91;5021476;27;97684;-77
2021/10/01 11:22:33;;;;;;;1999.90;999.90;;;;;;;12.06;40.88;101493.09;5021526;28;100699;-78
2021/10/01 11:25:05;;;;;;;1999.90;999.90;;;;;;;12.14;42.66;101498.63;5027354;27;97038;-75
2021/10/01 11:27:34;;;;;;;1999.90;999.90;;;;;;;12.20;42.42;101497.91;5016470;28;97319;-77
2021/10/01 11:30:11;;;;;;;1999.90;999.90;;;;;;;12.26;42.00;101493.63;5022895;27;98088;-76
2021/10/01 11:32:39;;;;;;;1999.90;999.90;;;;;;;12.31;42.20;101486.63;5024535;27;97477;-76
2021/10/01 11:35:08;;;;;;;1999.90;999.90;;;;;;;12.38;42.04;101482.38;5023201;27;96811;-76
2021/10/01 11:37:37;;;;;;;1999.90;999.90;;;;;;;12.44;41.69;101470.06;5019621;27;97289;-77
2021/10/01 11:40:07;;;;;;;1999.90;999.90;;;;;;;12.48;41.60;101471.94;5024387;27;97565;-77
2021/10/01 11:42:37;;;;;;;1999.90;999.90;;;;;;;12.53;41.77;101469.41;5025566;27;96925;-77
2021/10/01 11:45:12;;;;;;;1999.90;999.90;;;;;;;12.59;40.41;101469.53;5025313;27;96799;-76
2021/10/01 11:47:49;;;;;;;1999.90;999.90;;;;;;;12.68;40.58;101461.72;5020363;27;97758;-77
2021/10/01 11:50:17;;;;;;;1999.90;999.90;;;;;;;12.77;41.23;101461.94;5021472;28;99613;-77
2021/10/01 11:52:48;;;;;;;1999.90;999.90;;;;;;;12.88;41.29;101460.41;5023119;27;98093;-77
2021/10/01 11:55:16;;;;;;;1999.90;999.90;;;;;;;12.99;41.05;101445.53;5035590;27;96994;-78
2021/10/01 11:57:46;;;;;;;1999.90;999.90;;;;;;;13.08;40.86;101443.09;5021018;27;98968;-77
2021/10/01 12:00:18;;;;;;;1999.90;999.90;;;;;;;13.16;40.65;101444.16;5023026;27;98498;-77
2021/10/01 12:02:47;;;;;;;1999.90;999.90;;;;;;;13.22;40.57;101441.63;5025608;28;98305;-76
2021/10/01 12:05:22;;;;;;;1999.90;999.90;;;;;;;13.30;40.17;101433.75;5023410;27;97754;-77
2021/10/01 12:07:52;;;;;;;1999.90;999.90;;;;;;;13.36;40.33;101436.56;5020989;27;98168;-76
2021/10/01 12:10:21;;;;;;;1999.90;999.90;;;;;;;13.40;40.29;101434.00;5020681;27;99281;-77
2021/10/01 12:13:04;;;;;;;1999.90;999.90;;;;;;;13.46;38.54;101426.06;5000074;27;100396;-76
2021/10/01 12:15:42;;;;;;;1999.90;999.90;;;;;;;13.55;39.43;101428.91;5025390;27;96947;-75
2021/10/01 12:18:27;;;;;;;1999.90;999.90;;;;;;;13.65;39.33;101417.53;5017955;27;97307;-75
2021/10/01 12:20:56;;;;;;;1999.90;999.90;;;;;;;13.73;39.86;101413.22;5034190;27;99722;-75
2021/10/01 12:23:26;;;;;;;1999.90;999.90;;;;;;;13.81;39.74;101419.66;5023069;27;97430;-75
2021/10/01 12:25:55;;;;;;;1999.90;999.90;;;;;;;13.92;39.67;101412.72;5021248;27;97682;-76
2021/10/01 12:28:24;;;;;;;1999.90;999.90;;;;;;;14.02;39.62;101403.94;5024349;27;97292;-76
2021/10/01 12:31:04;;;;;;;1999.90;999.90;;;;;;;14.13;39.15;101406.84;5025402;27;97740;-76
2021/10/01 12:33:32;;;;;;;1999.90;999.90;;;;;;;14.26;39.21;101403.47;5020696;28;98485;-75
2021/10/01 12:36:00;;;;;;;1999.90;999.90;;;;;;;14.37;38.89;101404.53;5019347;27;97339;-76
2021/10/01 12:38:28;;;;;;;1999.90;999.90;;;;;;;14.49;38.76;101401.13;5021422;27;97205;-76
2021/10/01 12:41:13;;;;;;;1999.90;999.90;;;;;;;14.64;38.06;101396.03;5022204;27;99945;-75